Time;durP1;ratioP1;P1;durP2;ratioP2;P2;SDS_P1;SDS_P2;PMS_P1;PMS_P2;Temp;Humidity;BMP_temperature;BMP_pressure;BME280_temperature;BME280_humidity;BME280_pressure;Samples;Min_cycle;Max_cycle;Signal;HPM_P1;HPM_P2
2021/10/26 00:00:19;;;;;;;0.20;0.20;;;;;;;8.18;100.00;101031.22;5068872;28;20055;-81
2021/10/26 00:02:54;;;;;;;0.20;0.20;;;;;;;8.18;100.00;101032.03;5066276;28;20053;-81
2021/10/26 00:05:28;;;;;;;0.28;0.28;;;;;;;8.17;100.00;101030.44;5052826;28;20064;-80
2021/10/26 00:07:57;;;;;;;0.20;0.20;;;;;;;8.20;100.00;101030.97;5062611;28;20053;-80
2021/10/26 00:10:32;;;;;;;0.20;0.20;;;;;;;8.18;100.00;101023.91;5068530;28;20045;-80
2021/10/26 00:13:05;;;;;;;0.20;0.20;;;;;;;8.30;100.00;101033.78;5066425;28;20036;-80
2021/10/26 00:15:33;;;;;;;0.10;0.10;;;;;;;8.27;100.00;101031.59;5070196;28;20044;-80
2021/10/26 00:18:06;;;;;;;0.20;0.20;;;;;;;8.28;100.00;101034.03;5067562;28;20413;-80
2021/10/26 00:20:34;;;;;;;0.20;0.20;;;;;;;8.27;100.00;101027.00;5072033;28;20045;-80
2021/10/26 00:23:08;;;;;;;0.20;0.20;;;;;;;8.29;100.00;101030.25;5071532;28;20040;-81
2021/10/26 00:25:43;;;;;;;0.20;0.20;;;;;;;8.29;100.00;101024.03;5067428;28;20067;-80
2021/10/26 00:28:12;;;;;;;0.20;0.20;;;;;;;8.23;100.00;101025.03;5063534;28;20049;-80
2021/10/26 00:30:46;;;;;;;0.20;0.20;;;;;;;8.19;100.00;101022.03;5060458;28;20044;-81
2021/10/26 00:33:24;;;;;;;0.20;0.20;;;;;;;8.18;100.00;101023.91;5069534;28;20051;-80
2021/10/26 00:35:58;;;;;;;0.20;0.20;;;;;;;8.19;100.00;101022.03;5066746;28;20036;-80
2021/10/26 00:38:26;;;;;;;0.20;0.20;;;;;;;8.18;100.00;101023.91;5067846;28;20052;-81
2021/10/26 00:41:00;;;;;;;0.20;0.20;;;;;;;8.19;100.00;101027.47;5064741;28;20040;-81
2021/10/26 00:43:30;;;;;;;0.30;0.30;;;;;;;8.21;100.00;101021.78;5085460;28;20071;-80
2021/10/26 00:46:03;;;;;;;0.20;0.20;;;;;;;8.20;100.00;101012.00;5067346;28;20037;-80
2021/10/26 00:48:34;;;;;;;0.20;0.20;;;;;;;8.24;100.00;101024.78;5063347;28;20041;-80
2021/10/26 00:51:09;;;;;;;0.20;0.20;;;;;;;8.33;100.00;101020.53;5079784;28;20131;-80
2021/10/26 00:53:43;;;;;;;0.20;0.20;;;;;;;8.27;100.00;101027.00;5069862;28;20048;-81
2021/10/26 00:56:17;;;;;;;0.22;0.20;;;;;;;8.38;100.00;101021.66;5070332;28;20060;-81
2021/10/26 00:58:51;;;;;;;0.28;0.28;;;;;;;8.34;100.00;101016.75;5065089;28;20053;-81
2021/10/26 01:01:20;;;;;;;0.20;0.20;;;;;;;8.44;100.00;101015.22;5058098;28;20059;-79
2021/10/26 01:03:48;;;;;;;0.30;0.30;;;;;;;8.50;100.00;101028.59;5086084;28;20048;-81
2021/10/26 01:06:21;;;;;;;0.20;0.20;;;;;;;8.48;100.00;101021.81;5083166;28;20705;-82
2021/10/26 01:08:56;;;;;;;0.20;0.20;;;;;;;8.43;100.00;101025.25;5081156;28;20056;-80
2021/10/26 01:11:31;;;;;;;0.20;0.20;;;;;;;8.43;100.00;101016.28;5077661;28;20072;-79
2021/10/26 01:14:05;;;;;;;0.20;0.20;;;;;;;8.41;100.00;101023.84;5073187;28;20059;-80
2021/10/26 01:16:38;;;;;;;0.30;0.30;;;;;;;8.45;100.00;101022.28;5066783;28;20052;-81
2021/10/26 01:19:15;;;;;;;0.25;0.25;;;;;;;8.38;100.00;101021.66;5060994;28;20060;-80
2021/10/26 01:21:50;;;;;;;0.20;0.20;;;;;;;8.43;100.00;101017.09;5068449;28;20049;-80
2021/10/26 01:24:24;;;;;;;0.20;0.20;;;;;;;8.38;100.00;101019.75;5066954;28;20043;-80
2021/10/26 01:26:53;;;;;;;0.20;0.20;;;;;;;8.46;100.00;101030.19;5070919;28;20044;-80
2021/10/26 01:29:21;;;;;;;0.20;0.20;;;;;;;8.48;100.00;101022.63;5069876;28;20412;-81
2021/10/26 01:32:01;;;;;;;0.20;0.20;;;;;;;8.61;100.00;101020.56;5069406;28;20048;-80
2021/10/26 01:34:38;;;;;;;0.20;0.20;;;;;;;8.49;100.00;101021.53;5064038;28;20045;-80
2021/10/26 01:37:40;;;;;;;0.30;0.30;;;;;;;8.45;100.00;101019.59;5076082;28;20044;-80
2021/10/26 01:40:14;;;;;;;0.20;0.20;;;;;;;8.46;100.00;101023.94;5067399;28;20056;-81
2021/10/26 01:42:47;;;;;;;0.20;0.20;;;;;;;8.43;100.00;101014.38;5070271;28;20047;-81
2021/10/26 01:45:16;;;;;;;0.30;0.30;;;;;;;8.48;100.00;101019.09;5073162;28;20085;-80
2021/10/26 01:47:54;;;;;;;0.20;0.20;;;;;;;8.46;100.00;101027.47;5067618;28;20044;-80
2021/10/26 01:50:28;;;;;;;0.25;0.25;;;;;;;8.49;100.00;101028.84;5067674;28;20099;-82
2021/10/26 01:53:04;;;;;;;0.20;0.20;;;;;;;8.53;100.00;101029.16;5059221;28;20059;-80
2021/10/26 01:55:46;;;;;;;0.20;0.20;;;;;;;8.56;100.00;101032.19;5072821;28;20048;-81
2021/10/26 01:58:19;;;;;;;0.25;0.25;;;;;;;8.54;100.00;101031.63;5074134;28;20072;-80
2021/10/26 02:01:12;;;;;;;0.30;0.30;;;;;;;8.70;100.00;101032.59;5066695;28;20528;-80
2021/10/26 02:03:46;;;;;;;0.30;0.20;;;;;;;8.58;100.00;101018.38;5070533;28;20512;-80
2021/10/26 02:06:22;;;;;;;0.30;0.30;;;;;;;8.63;100.00;101018.38;5067920;28;20527;-81
2021/10/26 02:09:28;;;;;;;0.20;0.20;;;;;;;8.54;100.00;101022.66;5069117;28;20189;-81
2021/10/26 02:12:02;;;;;;;0.30;0.30;;;;;;;8.61;100.00;101025.97;5067938;28;20036;-80
2021/10/26 02:14:35;;;;;;;0.30;0.30;;;;;;;8.66;100.00;101012.47;5067469;28;20052;-81
2021/10/26 02:17:09;;;;;;;0.20;0.20;;;;;;;8.65;100.00;101010.81;5064665;28;20045;-79
2021/10/26 02:19:42;;;;;;;0.20;0.20;;;;;;;8.65;100.00;101018.97;5058658;28;20037;-81
2021/10/26 02:22:15;;;;;;;0.25;0.25;;;;;;;8.70;100.00;101015.47;5080783;28;20052;-81
2021/10/26 02:24:50;;;;;;;0.20;0.20;;;;;;;8.66;100.00;101015.19;5064138;28;20048;-80
2021/10/26 02:27:23;;;;;;;0.30;0.30;;;;;;;8.71;100.00;101020.63;5067309;28;20056;-82
2021/10/26 02:29:56;;;;;;;0.30;0.30;;;;;;;8.67;100.00;101012.22;5071611;28;20412;-80
2021/10/26 02:32:30;;;;;;;0.20;0.20;;;;;;;8.75;100.00;101018.22;5058352;28;20052;-80
2021/10/26 02:35:05;;;;;;;0.20;0.20;;;;;;;8.73;100.00;101015.78;5068344;28;20045;-81
2021/10/26 02:37:40;;;;;;;0.20;0.20;;;;;;;8.67;100.00;101014.91;5070210;28;20040;-81
2021/10/26 02:40:11;;;;;;;0.20;0.20;;;;;;;8.75;100.00;101010.09;5071611;28;20049;-80
2021/10/26 02:42:44;;;;;;;0.20;0.20;;;;;;;8.77;100.00;101010.63;5064611;28;20041;-81
2021/10/26 02:45:19;;;;;;;0.30;0.30;;;;;;;8.74;100.00;101013.88;5066861;28;20519;-81
2021/10/26 02:47:52;;;;;;;0.30;0.30;;;;;;;8.78;100.00;101015.00;5065944;28;20041;-80
2021/10/26 02:50:26;;;;;;;0.30;0.20;;;;;;;8.79;100.00;101013.91;5070665;28;20401;-81
2021/10/26 02:53:09;;;;;;;0.10;0.10;;;;;;;8.73;100.00;101014.94;5069135;28;20044;-80
2021/10/26 02:55:39;;;;;;;;;;;;;;;8.86;100.00;101014.50;5060146;28;20406;-81
2021/10/26 02:58:12;;;;;;;0.30;0.30;;;;;;;8.76;100.00;101014.44;5069557;28;19920;-81
2021/10/26 03:00:46;;;;;;;0.30;0.30;;;;;;;8.73;100.00;101004.91;5076005;28;20040;-80
2021/10/26 03:03:21;;;;;;;0.20;0.20;;;;;;;8.76;100.00;101009.00;5068571;28;20048;-82
2021/10/26 03:05:55;;;;;;;0.25;0.25;;;;;;;8.71;100.00;101009.78;5071268;28;20051;-80
2021/10/26 03:08:30;;;;;;;0.30;0.30;;;;;;;8.76;100.00;101017.97;5063251;28;20068;-80
2021/10/26 03:11:08;;;;;;;0.30;0.30;;;;;;;8.81;100.00;101017.16;5067882;28;20037;-81
2021/10/26 03:13:42;;;;;;;0.20;0.20;;;;;;;8.65;100.00;101008.91;5066021;28;20051;-82
2021/10/26 03:16:15;;;;;;;0.20;0.20;;;;;;;8.63;100.00;101012.97;5070940;28;20067;-81
2021/10/26 03:18:44;;;;;;;0.20;0.20;;;;;;;8.62;100.00;101027.63;5074041;28;20044;-79
2021/10/26 03:21:17;;;;;;;0.15;0.15;;;;;;;8.47;100.00;101028.31;5072165;28;20064;-80
2021/10/26 03:23:50;;;;;;;0.20;0.20;;;;;;;8.48;100.00;101019.91;5071084;28;20051;-82
2021/10/26 03:26:25;;;;;;;0.20;0.20;;;;;;;8.43;100.00;101021.72;5060242;28;20056;-80
2021/10/26 03:28:58;;;;;;;0.25;0.25;;;;;;;8.45;100.00;101022.28;5064054;28;20044;-80
2021/10/26 03:31:27;;;;;;;0.20;0.20;;;;;;;8.49;100.00;101023.41;5069848;28;20516;-81
2021/10/26 03:34:14;;;;;;;0.30;0.30;;;;;;;8.52;100.00;101022.94;5074274;28;20081;-80
2021/10/26 03:36:47;;;;;;;0.25;0.25;;;;;;;8.55;100.00;101016.97;5078011;28;20056;-81
2021/10/26 03:39:15;;;;;;;0.30;0.30;;;;;;;8.70;100.00;101023.59;5084357;28;20059;-80
2021/10/26 03:41:50;;;;;;;0.30;0.30;;;;;;;8.58;100.00;101027.31;5064685;28;20056;-82
2021/10/26 03:44:18;;;;;;;0.30;0.30;;;;;;;8.63;100.00;101023.81;5061682;28;20040;-80
2021/10/26 03:46:47;;;;;;;0.28;0.28;;;;;;;8.63;100.00;101031.94;5069006;28;20512;-80
2021/10/26 03:49:22;;;;;;;0.30;0.30;;;;;;;8.58;100.00;101027.31;5071106;28;20059;-80
2021/10/26 03:51:56;;;;;;;0.30;0.30;;;;;;;8.59;100.00;101028.13;5070659;28;20052;-80
2021/10/26 03:54:29;;;;;;;0.30;0.30;;;;;;;8.53;100.00;101029.16;5069143;28;20048;-81
2021/10/26 03:57:08;;;;;;;0.22;0.22;;;;;;;8.43;100.00;101017.09;5079578;28;20049;-80
2021/10/26 03:59:37;;;;;;;0.20;0.20;;;;;;;8.44;100.00;101015.22;5063548;28;20049;-80
2021/10/26 04:02:18;;;;;;;0.30;0.30;;;;;;;8.43;100.00;101021.72;5070364;28;20517;-80
2021/10/26 04:04:56;;;;;;;0.30;0.30;;;;;;;8.41;100.00;101026.56;5068928;28;20056;-81
2021/10/26 04:07:26;;;;;;;0.25;0.25;;;;;;;8.49;100.00;101020.72;5070432;28;20053;-80
2021/10/26 04:09:58;;;;;;;0.30;0.30;;;;;;;8.42;100.00;101023.59;5083953;28;20044;-80
2021/10/26 04:12:35;;;;;;;0.30;0.30;;;;;;;8.34;100.00;101011.34;5069640;28;21496;-81
2021/10/26 04:15:09;;;;;;;0.30;0.30;;;;;;;8.46;100.00;101018.53;5081283;28;20049;-80
2021/10/26 04:17:42;;;;;;;0.20;0.20;;;;;;;8.46;100.00;101018.53;5065642;28;20060;-82
2021/10/26 04:20:15;;;;;;;0.30;0.30;;;;;;;8.59;100.00;101020.81;5063007;28;20060;-81
2021/10/26 04:22:49;;;;;;;0.30;0.30;;;;;;;8.53;100.00;101021.84;5057595;28;20053;-80
2021/10/26 04:25:22;;;;;;;0.30;0.30;;;;;;;8.59;100.00;101022.69;5063303;28;20054;-81
2021/10/26 04:27:54;;;;;;;0.30;0.30;;;;;;;8.51;100.00;101016.66;5069049;28;20416;-80
2021/10/26 04:30:27;;;;;;;0.30;0.30;;;;;;;8.39;100.00;101015.16;5071994;28;20521;-80
2021/10/26 04:33:02;;;;;;;0.30;0.30;;;;;;;8.32;100.00;101020.81;5066773;28;20523;-81
2021/10/26 04:35:36;;;;;;;0.20;0.20;;;;;;;8.29;100.00;101024.84;5082835;28;20142;-80
2021/10/26 04:38:10;;;;;;;0.30;0.30;;;;;;;8.24;100.00;101029.38;5071985;28;20048;-81
2021/10/26 04:40:38;;;;;;;0.30;0.30;;;;;;;8.16;100.00;101017.09;5061169;28;20057;-80
2021/10/26 04:43:25;;;;;;;0.20;0.20;;;;;;;8.11;100.00;101020.59;5067238;28;20049;-80
2021/10/26 04:45:58;;;;;;;0.30;0.30;;;;;;;8.09;100.00;101022.75;5085296;28;20051;-81
2021/10/26 04:48:31;;;;;;;0.28;0.28;;;;;;;8.02;100.00;101032.94;5069276;28;20044;-81
2021/10/26 04:51:05;;;;;;;0.25;0.25;;;;;;;7.99;100.00;101028.84;5068614;28;20052;-81
2021/10/26 04:53:33;;;;;;;0.25;0.25;;;;;;;7.97;100.00;101041.03;5083394;28;20501;-80
2021/10/26 04:56:06;;;;;;;0.25;0.25;;;;;;;7.92;100.00;101022.81;5071289;28;20111;-80
2021/10/26 04:59:16;;;;;;;0.20;0.20;;;;;;;8.09;100.00;101047.16;5068633;28;20074;-81
2021/10/26 05:01:49;;;;;;;0.20;0.20;;;;;;;8.14;100.00;101046.38;5065027;28;20056;-81
2021/10/26 05:04:17;;;;;;;0.30;0.30;;;;;;;8.13;100.00;101048.28;5089919;28;20040;-81
2021/10/26 05:06:53;;;;;;;0.30;0.30;;;;;;;8.22;100.00;101053.25;5064803;28;20398;-80
2021/10/26 05:09:26;;;;;;;0.30;0.30;;;;;;;8.06;100.00;101020.53;5069934;28;20068;-80
2021/10/26 05:12:00;;;;;;;0.20;0.20;;;;;;;8.31;100.00;101055.25;5086152;28;20055;-80
2021/10/26 05:14:34;;;;;;;0.30;0.30;;;;;;;8.34;100.00;101056.59;5070484;28;20055;-81
2021/10/26 05:17:27;;;;;;;0.30;0.30;;;;;;;8.42;100.00;101058.03;5078609;28;20059;-82
2021/10/26 05:20:27;;;;;;;0.30;0.30;;;;;;;8.42;100.00;101055.34;5047745;28;20053;-80
2021/10/26 05:23:19;;;;;;;0.20;0.20;;;;;;;8.48;100.00;101051.66;5080569;28;20057;-80
2021/10/26 05:26:18;;;;;;;0.20;0.20;;;;;;;8.54;100.00;101057.94;5083699;28;20052;-81
2021/10/26 05:28:52;;;;;;;0.30;0.30;;;;;;;8.44;100.00;101045.88;5060984;28;20053;-82
2021/10/26 05:31:27;;;;;;;0.30;0.30;;;;;;;8.55;100.00;101056.84;5083165;28;20064;-81
2021/10/26 05:34:09;;;;;;;0.30;0.30;;;;;;;8.54;100.00;101066.06;5083572;28;20087;-81
2021/10/26 05:36:42;;;;;;;0.30;0.30;;;;;;;8.61;100.00;101072.09;5067908;28;20044;-82
2021/10/26 05:39:16;;;;;;;0.20;0.20;;;;;;;8.65;100.00;101062.38;5067947;28;20060;-81
2021/10/26 05:41:55;;;;;;;0.30;0.30;;;;;;;8.76;100.00;101064.09;5085882;28;20044;-80
2021/10/26 05:44:23;;;;;;;0.30;0.30;;;;;;;8.72;100.00;101062.97;5076400;28;20048;-80
2021/10/26 05:46:55;;;;;;;0.20;0.20;;;;;;;8.79;100.00;101058.16;5069674;28;20055;-81
2021/10/26 05:49:28;;;;;;;0.30;0.30;;;;;;;8.81;100.00;101050.56;5075510;28;20055;-81
2021/10/26 05:52:01;;;;;;;0.28;0.28;;;;;;;8.84;100.00;101060.91;5065713;28;20059;-81
2021/10/26 05:54:34;;;;;;;0.30;0.30;;;;;;;8.75;100.00;101053.50;5065994;28;20063;-81
2021/10/26 05:57:03;;;;;;;0.20;0.20;;;;;;;8.74;100.00;101060.84;5053682;28;20056;-82
2021/10/26 05:59:36;;;;;;;0.30;0.30;;;;;;;8.79;100.00;101069.00;5053620;28;20052;-83
2021/10/26 06:02:14;;;;;;;0.30;0.30;;;;;;;8.76;100.00;101063.28;5068003;28;20056;-82
2021/10/26 06:04:48;;;;;;;0.20;0.20;;;;;;;8.98;100.00;101083.00;5053059;28;20044;-84
2021/10/26 06:07:17;;;;;;;0.30;0.30;;;;;;;9.04;100.00;101072.19;5053259;28;20056;-81
2021/10/26 06:09:50;;;;;;;0.20;0.20;;;;;;;8.91;100.00;101084.28;5054680;28;20056;-84
2021/10/26 06:12:30;;;;;;;0.30;0.30;;;;;;;9.00;100.00;101089.00;5055211;28;20051;-85
2021/10/26 06:15:04;;;;;;;0.20;0.20;;;;;;;9.03;100.00;101093.06;5069646;28;20750;-82
2021/10/26 06:17:39;;;;;;;0.30;0.30;;;;;;;8.94;100.00;101087.31;5055325;28;20060;-81
2021/10/26 06:20:13;;;;;;;0.20;0.20;;;;;;;8.95;100.00;101082.69;5050533;28;20057;-84
2021/10/26 06:22:46;;;;;;;0.30;0.30;;;;;;;9.09;100.00;101091.25;5072443;28;20044;-81
2021/10/26 06:25:20;;;;;;;0.30;0.30;;;;;;;9.06;100.00;101094.47;5054766;28;20057;-84
2021/10/26 06:28:16;;;;;;;0.30;0.30;;;;;;;8.99;100.00;101090.06;5027808;28;20057;-81
2021/10/26 06:30:49;;;;;;;0.30;0.30;;;;;;;8.88;100.00;101093.78;5054146;28;20588;-82
2021/10/26 06:33:29;;;;;;;0.20;0.20;;;;;;;8.84;100.00;101095.38;5050699;28;20053;-83
2021/10/26 06:36:12;;;;;;;0.20;0.20;;;;;;;8.84;100.00;101098.09;5051107;28;21182;-83
2021/10/26 06:38:53;;;;;;;0.30;0.30;;;;;;;8.87;100.00;101103.00;5052407;28;20059;-83
2021/10/26 06:41:28;;;;;;;0.30;0.30;;;;;;;8.94;100.00;101109.03;5057156;28;20116;-83
2021/10/26 06:44:02;;;;;;;0.30;0.30;;;;;;;8.94;100.00;101109.03;5060101;28;20106;-84
2021/10/26 06:46:53;;;;;;;0.30;0.30;;;;;;;8.91;100.00;101125.00;5062227;28;20055;-83
2021/10/26 06:49:41;;;;;;;0.30;0.30;;;;;;;8.98;100.00;101117.50;5052185;28;20072;-83
2021/10/26 06:52:29;;;;;;;0.30;0.30;;;;;;;9.02;100.00;101124.03;5052009;28;20083;-84
2021/10/26 06:55:21;;;;;;;0.30;0.30;;;;;;;9.10;100.00;101125.44;5058726;28;20063;-83
2021/10/26 06:58:13;;;;;;;0.20;0.20;;;;;;;9.02;100.00;101133.00;5061521;28;20059;-83
2021/10/26 07:01:06;;;;;;;0.30;0.30;;;;;;;9.08;100.00;101135.75;5012203;28;20072;-84
2021/10/26 07:04:01;;;;;;;0.30;0.30;;;;;;;9.21;100.00;101145.34;5050609;28;20061;-83
2021/10/26 07:06:42;;;;;;;0.30;0.30;;;;;;;9.09;100.00;101137.41;5067633;28;20060;-83
2021/10/26 07:09:41;;;;;;;0.22;0.22;;;;;;;9.12;100.00;101136.88;5060126;28;20625;-84
2021/10/26 07:12:24;;;;;;;0.22;0.22;;;;;;;9.26;100.00;101148.94;5049682;28;20060;-83
2021/10/26 07:14:52;;;;;;;0.30;0.30;;;;;;;9.26;100.00;101151.66;5068396;28;20048;-84
2021/10/26 07:17:25;;;;;;;0.30;0.30;;;;;;;9.27;100.00;101161.44;5049857;28;20052;-83
2021/10/26 07:19:58;;;;;;;0.30;0.30;;;;;;;9.28;100.00;101156.81;5070525;28;20056;-83
2021/10/26 07:22:33;;;;;;;0.30;0.30;;;;;;;9.35;100.00;101158.25;5063979;28;20060;-82
2021/10/26 07:25:25;;;;;;;0.40;0.40;;;;;;;9.42;100.00;101163.47;5022680;28;20060;-83
2021/10/26 07:27:58;;;;;;;0.30;0.30;;;;;;;9.37;100.00;101155.28;5051036;28;20062;-82
2021/10/26 07:30:34;;;;;;;0.30;0.30;;;;;;;9.49;100.00;101163.25;5050094;28;20057;-84
2021/10/26 07:33:15;;;;;;;0.20;0.20;;;;;;;9.50;100.00;101162.97;5050894;28;20069;-83
2021/10/26 07:35:45;;;;;;;0.30;0.30;;;;;;;9.45;100.00;101168.38;5052685;28;20044;-83
2021/10/26 07:38:28;;;;;;;0.28;0.28;;;;;;;9.50;100.00;101168.41;5054029;28;20528;-83
2021/10/26 07:41:02;;;;;;;0.60;0.30;;;;;;;9.60;100.00;101170.38;5050897;28;20048;-83
2021/10/26 07:43:55;;;;;;;0.20;0.20;;;;;;;9.67;100.00;101170.97;5057480;28;20048;-81
2021/10/26 07:46:34;;;;;;;0.20;0.20;;;;;;;9.59;100.00;101176.09;5061111;28;20051;-84
2021/10/26 07:49:06;;;;;;;0.30;0.30;;;;;;;9.57;100.00;101176.34;5049839;28;20059;-82
2021/10/26 07:51:40;;;;;;;0.30;0.30;;;;;;;9.53;100.00;101180.66;5045887;28;20083;-82
2021/10/26 07:54:16;;;;;;;0.30;0.30;;;;;;;9.48;100.00;101169.75;5067630;28;20385;-82
2021/10/26 07:56:54;;;;;;;0.30;0.30;;;;;;;9.48;100.00;101173.28;5046837;28;21017;-83
2021/10/26 07:59:27;;;;;;;0.25;0.25;;;;;;;9.52;100.00;101168.16;5039870;28;20416;-83
2021/10/26 08:02:01;;;;;;;0.25;0.25;;;;;;;9.50;100.00;101162.97;5039905;28;20052;-84
2021/10/26 08:04:55;;;;;;;0.30;0.30;;;;;;;9.58;100.00;101164.38;5052845;28;20064;-84
2021/10/26 08:07:26;;;;;;;0.20;0.20;;;;;;;9.69;100.00;101166.09;5054042;28;20075;-85
2021/10/26 08:09:57;;;;;;;0.30;0.30;;;;;;;9.65;100.00;101172.31;5040546;28;20044;-85
2021/10/26 08:12:32;;;;;;;0.30;0.30;;;;;;;9.68;100.00;101171.78;5039940;28;20060;-83
2021/10/26 08:15:00;;;;;;;0.20;0.20;;;;;;;9.77;100.00;101174.84;5042934;28;20115;-85
2021/10/26 08:17:33;;;;;;;0.28;0.28;;;;;;;9.81;100.00;101175.97;5061148;28;20531;-82
2021/10/26 08:20:10;;;;;;;0.22;0.22;;;;;;;9.87;100.00;101175.72;5037837;28;20053;-84
2021/10/26 08:22:44;;;;;;;0.20;0.20;;;;;;;9.88;100.00;101176.53;5038755;28;20052;-83
2021/10/26 08:25:23;;;;;;;0.30;0.30;;;;;;;9.96;100.00;101177.94;5044003;28;20064;-80
2021/10/26 08:27:59;;;;;;;0.20;0.20;;;;;;;10.02;100.00;101168.72;5034651;28;20049;-84
2021/10/26 08:30:38;;;;;;;0.30;0.30;;;;;;;10.00;100.00;101169.00;5040375;28;20061;-84
2021/10/26 08:33:36;;;;;;;0.25;0.25;;;;;;;10.01;100.00;101164.38;5041853;28;20051;-85
2021/10/26 08:36:09;;;;;;;0.30;0.30;;;;;;;10.10;100.00;101165.50;5064801;28;21849;-83
2021/10/26 08:38:43;;;;;;;0.20;0.20;;;;;;;10.09;100.00;101166.59;5039796;28;20067;-82
2021/10/26 08:41:13;;;;;;;0.30;0.30;;;;;;;9.99;100.00;101159.19;5039062;28;20049;-83
2021/10/26 08:43:48;;;;;;;0.30;0.30;;;;;;;10.14;100.00;101177.50;5047596;28;20083;-83
2021/10/26 08:46:22;;;;;;;0.20;0.20;;;;;;;10.25;100.00;101181.09;5038395;28;21669;-83
2021/10/26 08:48:51;;;;;;;0.20;0.20;;;;;;;10.34;100.00;101181.38;5043448;28;20064;-83
2021/10/26 08:51:47;;;;;;;0.20;0.20;;;;;;;10.29;100.00;101184.06;5042203;28;20061;-84
2021/10/26 08:54:28;;;;;;;0.20;0.20;;;;;;;10.26;100.00;101182.72;5036434;28;20053;-82
2021/10/26 08:57:22;;;;;;;0.30;0.30;;;;;;;10.24;100.00;101194.94;5046834;28;20076;-83
2021/10/26 09:00:27;;;;;;;0.22;0.22;;;;;;;10.36;100.00;101182.78;5040453;28;20862;-82
2021/10/26 09:03:16;;;;;;;0.20;0.20;;;;;;;10.37;100.00;101191.75;5037836;28;20053;-82
2021/10/26 09:05:50;;;;;;;0.20;0.20;;;;;;;10.35;100.00;101186.59;5034025;28;20067;-83
2021/10/26 09:08:26;;;;;;;0.25;0.25;;;;;;;10.36;100.00;101177.34;5055612;28;20056;-82
2021/10/26 09:11:02;;;;;;;0.30;0.30;;;;;;;10.39;100.00;101173.28;5064454;28;20057;-84
2021/10/26 09:17:16;;;;;;;0.20;0.20;;;;;;;10.53;100.00;101195.38;5028142;28;20053;-84
2021/10/26 09:20:03;;;;;;;0.30;0.30;;;;;;;10.58;100.00;101183.66;5041879;28;20072;-82
2021/10/26 09:22:47;;;;;;;0.20;0.20;;;;;;;10.68;100.00;101194.59;5036919;28;20049;-83
2021/10/26 09:25:34;;;;;;;0.20;0.20;;;;;;;10.69;100.00;101188.88;5039096;28;20055;-83
2021/10/26 09:28:13;;;;;;;0.30;0.30;;;;;;;10.76;100.00;101195.97;5051269;28;20523;-86
2021/10/26 09:30:57;;;;;;;0.30;0.30;;;;;;;10.89;100.00;101190.81;5069908;28;20052;-84
2021/10/26 09:33:33;;;;;;;0.20;0.20;;;;;;;10.92;100.00;101200.38;5050567;28;20872;-87
2021/10/26 09:36:26;;;;;;;0.28;0.28;;;;;;;10.88;100.00;101200.09;5041054;28;20059;-84
2021/10/26 09:39:13;;;;;;;0.20;0.20;;;;;;;10.88;100.00;101191.09;5043036;28;20052;-85
2021/10/26 09:42:07;;;;;;;0.20;0.20;;;;;;;10.91;100.00;101193.31;5065305;28;20056;-86
2021/10/26 09:44:56;;;;;;;0.30;0.30;;;;;;;11.13;100.00;101189.50;5045711;28;20076;-83
2021/10/26 09:47:27;;;;;;;0.20;0.20;;;;;;;11.26;100.00;101197.16;5052472;28;20060;-85
2021/10/26 09:50:04;;;;;;;0.30;0.30;;;;;;;11.31;100.00;101193.59;5044193;28;20528;-87
2021/10/26 09:52:39;;;;;;;0.30;0.30;;;;;;;11.30;100.00;101187.34;5058226;28;20061;-85
2021/10/26 09:55:16;;;;;;;0.30;0.30;;;;;;;11.28;100.00;101192.22;5043943;28;20068;-83
2021/10/26 09:57:47;;;;;;;0.30;0.30;;;;;;;11.12;100.00;101188.69;5045292;28;20052;-88
2021/10/26 10:00:26;;;;;;;0.28;0.28;;;;;;;11.09;100.00;101202.03;5047750;28;20041;-86
2021/10/26 10:03:26;;;;;;;0.20;0.20;;;;;;;11.01;100.00;101201.47;5057263;28;20059;-87
2021/10/26 10:05:55;;;;;;;0.30;0.30;;;;;;;11.14;100.00;101200.13;5045315;28;20053;-83
2021/10/26 10:08:33;;;;;;;0.30;0.30;;;;;;;11.16;100.00;101197.97;5046645;28;20960;-86
2021/10/26 10:11:13;;;;;;;0.30;0.30;;;;;;;11.08;100.00;101194.97;5042273;28;20055;-85
2021/10/26 10:13:44;;;;;;;0.28;0.28;;;;;;;11.05;100.00;101204.50;5046113;28;20052;-88
2021/10/26 10:16:38;;;;;;;0.20;0.20;;;;;;;11.11;100.00;101208.84;5043793;28;20518;-86
2021/10/26 10:19:08;;;;;;;0.30;0.30;;;;;;;11.04;100.00;101195.50;5056894;28;20048;-85
2021/10/26 10:21:37;;;;;;;0.30;0.30;;;;;;;11.26;100.00;101205.31;5040622;28;20056;-87
2021/10/26 10:24:11;;;;;;;0.20;0.20;;;;;;;11.26;100.00;101201.78;5043534;28;20040;-87
2021/10/26 10:26:50;;;;;;;0.25;0.25;;;;;;;11.30;100.00;101203.69;5047268;28;20052;-85
2021/10/26 10:29:21;;;;;;;0.30;0.30;;;;;;;11.28;100.00;101205.06;5041719;28;20060;-85
2021/10/26 10:31:54;;;;;;;0.20;0.20;;;;;;;11.22;100.00;101199.59;5064632;28;20063;-83
2021/10/26 10:34:25;;;;;;;0.20;0.20;;;;;;;11.36;100.00;101193.63;5043052;28;20067;-83
2021/10/26 10:37:00;;;;;;;0.20;0.20;;;;;;;11.27;100.00;101203.41;5049200;28;20115;-84
2021/10/26 10:39:34;;;;;;;0.30;0.30;;;;;;;11.29;100.00;101199.31;5060112;28;20052;-88
2021/10/26 10:42:18;;;;;;;0.22;0.22;;;;;;;11.31;100.00;101197.16;5045857;28;20049;-86
2021/10/26 10:44:53;;;;;;;0.20;0.20;;;;;;;11.29;100.00;101206.69;5049085;28;20051;-86
2021/10/26 10:47:41;;;;;;;0.25;0.25;;;;;;;11.40;100.00;101187.34;5046028;28;20425;-86
2021/10/26 10:50:36;;;;;;;0.20;0.20;;;;;;;11.41;100.00;101190.91;5049768;28;20044;-86
2021/10/26 10:53:21;;;;;;;0.20;0.20;;;;;;;11.53;100.00;101196.88;5064156;28;20048;-86
2021/10/26 10:56:15;;;;;;;0.20;0.20;;;;;;;11.50;100.00;101197.44;5043538;28;20048;-89
2021/10/26 10:58:55;;;;;;;0.20;0.20;;;;;;;11.50;100.00;101196.59;5061108;28;20051;-85
2021/10/26 11:01:32;;;;;;;0.20;0.20;;;;;;;11.39;100.00;101193.06;5047634;28;20057;-86
2021/10/26 11:04:27;;;;;;;;;;;;;;;11.46;100.00;101200.97;5058335;28;20048;-88
2021/10/26 11:07:06;;;;;;;0.30;0.30;;;;;;;11.53;100.00;101196.06;5060245;28;19929;-85
2021/10/26 11:09:45;;;;;;;0.20;0.20;;;;;;;11.42;100.00;101189.81;5049257;28;20052;-86
2021/10/26 11:12:37;;;;;;;0.22;0.22;;;;;;;11.44;100.00;101189.53;5055569;28;20586;-86
2021/10/26 11:15:13;;;;;;;0.20;0.20;;;;;;;11.50;100.00;101196.59;5042899;28;20067;-87
2021/10/26 11:17:57;;;;;;;0.30;0.30;;;;;;;11.30;100.00;101198.25;5044827;28;20060;-87
2021/10/26 11:20:58;;;;;;;0.20;0.20;;;;;;;11.23;100.00;101197.69;5046101;28;20064;-86
2021/10/26 11:23:44;;;;;;;0.20;0.20;;;;;;;11.06;100.00;101196.06;5045708;28;21373;-86
2021/10/26 11:26:18;;;;;;;0.30;0.30;;;;;;;11.06;100.00;101193.31;5062113;28;20068;-85
2021/10/26 11:28:56;;;;;;;0.20;0.20;;;;;;;11.17;100.00;101199.59;5064507;28;20551;-86
2021/10/26 11:31:32;;;;;;;0.30;0.30;;;;;;;11.21;100.00;101203.44;5045264;28;20053;-87
2021/10/26 11:34:16;;;;;;;0.28;0.28;;;;;;;11.30;100.00;101200.16;5046418;28;20052;-86
2021/10/26 11:37:03;;;;;;;0.20;0.20;;;;;;;11.51;100.00;101200.97;5044103;28;20057;-85
2021/10/26 11:39:33;;;;;;;0.28;0.28;;;;;;;11.55;100.00;101191.16;5065651;28;20049;-87
2021/10/26 11:42:11;;;;;;;0.22;0.22;;;;;;;11.47;100.00;101195.25;5046188;28;20049;-86
2021/10/26 11:44:41;;;;;;;0.30;0.30;;;;;;;11.60;100.00;101193.88;5056778;28;20498;-87
2021/10/26 11:47:14;;;;;;;0.20;0.20;;;;;;;11.64;100.00;101189.53;5058829;28;20061;-85
2021/10/26 11:49:48;;;;;;;0.20;0.20;;;;;;;11.54;100.00;101190.31;5040086;28;20045;-86
2021/10/26 11:52:21;;;;;;;0.20;0.20;;;;;;;11.49;100.00;101195.81;5042716;28;20058;-86
2021/10/26 11:54:52;;;;;;;0.30;0.30;;;;;;;11.39;100.00;101191.16;5045289;28;20505;-86
2021/10/26 11:57:22;;;;;;;0.20;0.20;;;;;;;11.32;100.00;101195.25;5056075;28;21821;-86
2021/10/26 12:00:11;;;;;;;0.30;0.30;;;;;;;11.23;100.00;101195.78;5063232;28;20040;-87
2021/10/26 12:02:49;;;;;;;0.30;0.30;;;;;;;11.12;100.00;101187.91;5046748;28;20056;-88
2021/10/26 12:05:33;;;;;;;0.22;0.22;;;;;;;11.10;100.00;101192.78;5043466;28;21324;-87
2021/10/26 12:08:02;;;;;;;0.20;0.20;;;;;;;11.11;100.00;101189.78;5043019;28;20047;-87
2021/10/26 12:10:37;;;;;;;0.30;0.30;;;;;;;11.04;100.00;101183.78;5065137;28;20903;-88
2021/10/26 12:13:12;;;;;;;0.20;0.20;;;;;;;11.04;100.00;101194.69;5045534;28;20052;-88